createdAt,value
2017-05-05T13:30:34.022Z,50.82
2017-05-05T13:33:02.414Z,33.82
2017-05-05T13:35:30.786Z,29.44
2017-05-05T13:37:59.468Z,36.38
2017-05-05T13:40:27.793Z,36.64
2017-05-05T13:42:56.099Z,39.70
2017-05-05T13:45:24.711Z,26.88
2017-05-05T13:47:53.095Z,36.64
2017-05-05T13:50:21.420Z,37.42
2017-05-05T13:52:50.070Z,33.14
2017-05-05T13:55:18.378Z,25.14
2017-05-05T13:57:46.698Z,24.70
2017-05-05T14:00:15.486Z,28.06
2017-05-05T14:02:43.805Z,42.72
2017-05-05T14:05:12.849Z,26.08
2017-05-05T14:07:41.456Z,29.08
2017-05-05T14:10:09.821Z,25.00
2017-05-05T14:12:38.558Z,21.84
2017-05-05T14:15:07.227Z,26.14
2017-05-05T14:17:36.637Z,27.10
2017-05-05T14:20:05.694Z,25.92
2017-05-05T14:22:34.393Z,20.38
2017-05-05T14:25:02.691Z,22.42
2017-05-05T14:27:31.027Z,24.72
2017-05-05T14:29:59.630Z,22.44
2017-05-05T14:35:10.018Z,17.60
2017-05-05T14:37:38.315Z,20.40
2017-05-05T14:40:07.353Z,18.88
2017-05-05T14:42:35.984Z,21.24
2017-05-05T14:45:04.274Z,19.28
2017-05-05T14:47:33.318Z,21.60
2017-05-05T14:50:01.945Z,19.98
2017-05-05T14:52:30.259Z,27.14
2017-05-05T14:54:58.569Z,19.50
2017-05-05T14:57:27.272Z,14.76
2017-05-05T14:59:55.562Z,22.42
2017-05-05T15:02:23.863Z,23.80
2017-05-05T15:04:52.486Z,27.96
2017-05-05T15:07:20.791Z,21.12
2017-05-05T15:09:49.094Z,15.10
2017-05-05T15:12:18.436Z,17.70
2017-05-05T15:14:46.733Z,17.18
2017-05-05T15:17:15.032Z,16.14
2017-05-05T15:19:43.716Z,28.64
2017-05-05T15:22:12.044Z,17.80
2017-05-05T15:24:40.344Z,15.92
2017-05-05T15:27:09.061Z,15.62
2017-05-05T15:29:37.361Z,18.00
2017-05-05T15:32:06.400Z,13.88
2017-05-05T15:34:34.983Z,15.82
2017-05-05T15:37:03.282Z,15.48
2017-05-05T15:39:31.586Z,15.46
2017-05-05T15:42:00.169Z,17.24
2017-05-05T15:44:28.461Z,14.10
2017-05-05T15:46:57.501Z,15.16
2017-05-05T15:49:26.107Z,13.90
2017-05-05T15:51:54.402Z,15.68
2017-05-05T15:54:22.699Z,13.50
2017-05-05T15:56:52.063Z,10.70
2017-05-05T15:59:20.373Z,15.72
2017-05-05T16:01:49.414Z,15.68
2017-05-05T16:04:18.023Z,14.20
2017-05-05T16:06:46.323Z,13.86
2017-05-05T16:09:15.362Z,12.88
2017-05-05T16:11:43.987Z,16.84
2017-05-05T16:14:12.282Z,12.58
2017-05-05T16:16:41.314Z,19.28
2017-05-05T16:19:09.955Z,22.24
2017-05-05T16:21:38.991Z,13.56
2017-05-05T16:24:07.296Z,19.68
2017-05-05T16:26:35.990Z,13.48
2017-05-05T16:29:04.291Z,13.14
2017-05-05T16:31:32.589Z,18.66
2017-05-05T16:34:01.945Z,15.16
2017-05-05T16:36:30.287Z,15.82
2017-05-05T16:38:58.600Z,19.14
2017-05-05T16:41:27.215Z,23.80
2017-05-05T16:43:56.266Z,16.20
2017-05-05T16:46:24.580Z,15.00
2017-05-05T16:48:53.247Z,12.96
2017-05-05T16:51:21.541Z,12.64
2017-05-05T16:53:49.850Z,10.30
2017-05-05T16:56:18.439Z,12.76
2017-05-05T16:58:46.734Z,12.98
2017-05-05T17:01:15.044Z,14.02
2017-05-05T17:03:43.736Z,10.26
2017-05-05T17:06:12.070Z,12.94
2017-05-05T17:08:40.382Z,13.00
2017-05-05T17:11:08.971Z,8.46
2017-05-05T17:13:37.281Z,6.20
2017-05-05T17:16:06.364Z,9.04
2017-05-05T17:18:35.046Z,12.92
2017-05-05T17:21:03.346Z,10.82
2017-05-05T17:23:32.379Z,15.46
2017-05-05T17:26:00.985Z,14.54
2017-05-05T17:28:29.282Z,9.78
2017-05-05T17:30:57.584Z,12.08
2017-05-05T17:33:26.942Z,10.52
2017-05-05T17:35:55.261Z,9.96
2017-05-05T17:38:24.300Z,11.72
2017-05-05T17:40:52.898Z,14.80
2017-05-05T17:43:21.204Z,8.50
2017-05-05T17:45:49.509Z,15.34
2017-05-05T17:48:18.150Z,14.50
2017-05-05T17:50:46.447Z,17.00
2017-05-05T17:53:14.742Z,11.78
2017-05-05T17:55:44.108Z,13.30
2017-05-05T17:58:12.399Z,13.10
2017-05-05T18:00:40.742Z,18.58
2017-05-05T18:03:09.355Z,17.50
2017-05-05T18:05:37.664Z,17.36
2017-05-05T18:08:06.695Z,20.46
2017-05-05T18:10:35.304Z,23.62
2017-05-05T18:13:03.607Z,16.36
2017-05-05T18:15:32.656Z,18.60
2017-05-05T18:18:01.257Z,18.30
2017-05-05T18:20:29.571Z,22.18
2017-05-05T18:22:58.634Z,24.88
2017-05-05T18:25:27.325Z,19.84
2017-05-05T18:27:55.629Z,19.36
2017-05-05T18:30:24.680Z,19.70
2017-05-05T18:32:53.389Z,21.16
2017-05-05T18:35:21.697Z,18.78
2017-05-05T18:37:50.129Z,18.24
2017-05-05T18:40:18.743Z,23.14
2017-05-05T18:42:47.800Z,18.62
2017-05-05T18:45:16.108Z,17.56
2017-05-05T18:47:44.788Z,20.94
2017-05-05T18:50:13.094Z,24.72
2017-05-05T18:52:42.143Z,23.08
2017-05-05T18:55:10.758Z,19.08
2017-05-05T18:57:39.078Z,18.16
2017-05-05T19:00:07.366Z,21.64
2017-05-05T19:02:35.983Z,21.10
2017-05-05T19:05:04.451Z,25.56
2017-05-05T19:07:32.759Z,17.18
2017-05-05T19:10:01.427Z,17.66
2017-05-05T19:12:29.732Z,17.36
2017-05-05T19:14:58.786Z,17.54
2017-05-05T19:17:27.390Z,20.78
2017-05-05T19:19:55.716Z,19.80
2017-05-05T19:22:24.018Z,16.26
2017-05-05T19:24:52.619Z,15.74
2017-05-05T19:27:20.954Z,17.46
2017-05-05T19:29:49.271Z,17.46
2017-05-05T19:32:17.876Z,19.00
2017-05-05T19:34:46.184Z,16.88
2017-05-05T19:37:15.228Z,14.56
2017-05-05T19:39:43.856Z,15.22
2017-05-05T19:42:12.893Z,19.70
2017-05-05T19:44:41.212Z,15.44
2017-05-05T19:47:09.895Z,16.68
2017-05-05T19:49:38.208Z,15.62
2017-05-05T19:52:06.503Z,12.66
2017-05-05T19:54:35.126Z,16.54
2017-05-05T19:57:03.421Z,15.72
2017-05-05T19:59:31.725Z,17.42
2017-05-05T20:02:00.359Z,19.12
2017-05-05T20:04:28.682Z,14.76
2017-05-05T20:06:56.995Z,18.66
2017-05-05T20:09:25.611Z,18.54
2017-05-05T20:11:53.900Z,13.42
2017-05-05T20:14:22.217Z,12.96
2017-05-05T20:16:50.849Z,12.86
2017-05-05T20:19:19.183Z,13.62
2017-05-05T20:21:47.518Z,12.54
2017-05-05T20:24:16.105Z,14.50
2017-05-05T20:26:44.408Z,14.40
2017-05-05T20:29:12.713Z,13.70
2017-05-05T20:31:41.304Z,17.44
2017-05-05T20:34:09.622Z,13.40
2017-05-05T20:36:37.908Z,12.12
2017-05-05T20:39:07.283Z,13.44
2017-05-05T20:41:35.596Z,12.58
2017-05-05T20:44:04.631Z,15.76
2017-05-05T20:46:33.279Z,12.52
2017-05-05T20:49:02.324Z,10.62
2017-05-05T20:51:30.626Z,10.96
2017-05-05T20:53:59.242Z,10.58
2017-05-05T20:56:28.289Z,13.58
2017-05-05T20:58:56.587Z,12.32
2017-05-05T21:01:25.188Z,10.08
2017-05-05T21:03:54.221Z,10.62
2017-05-05T21:06:22.540Z,11.36
2017-05-05T21:08:51.225Z,12.90
2017-05-05T21:11:19.519Z,13.06
2017-05-05T21:13:48.547Z,11.56
2017-05-05T21:16:17.165Z,9.88
2017-05-05T21:18:45.454Z,10.24
2017-05-05T21:21:13.757Z,8.30
2017-05-05T21:23:43.124Z,9.70
2017-05-05T21:26:11.429Z,9.78
2017-05-05T21:28:40.457Z,13.52
2017-05-05T21:31:09.041Z,9.84
2017-05-05T21:33:37.360Z,10.34
2017-05-05T21:36:05.652Z,9.06
2017-05-05T21:38:34.256Z,11.66
2017-05-05T21:41:03.302Z,11.40
2017-05-05T21:43:31.599Z,10.20
2017-05-05T21:46:00.300Z,8.16
2017-05-05T21:48:28.601Z,8.34
2017-05-05T21:50:56.918Z,9.36
2017-05-05T21:53:25.530Z,10.44
2017-05-05T21:55:53.828Z,10.72
2017-05-05T21:58:22.863Z,8.06
2017-05-05T22:00:51.480Z,10.82
2017-05-05T22:03:19.775Z,11.04
2017-05-05T22:05:48.082Z,9.52
2017-05-05T22:08:16.712Z,9.80
2017-05-05T22:10:45.010Z,12.00
2017-05-05T22:13:13.310Z,9.22
2017-05-05T22:15:42.671Z,8.46
2017-05-05T22:18:10.965Z,11.58
2017-05-05T22:20:39.262Z,9.18
2017-05-05T22:23:08.638Z,10.06
2017-05-05T22:25:36.927Z,8.50
2017-05-05T22:28:05.212Z,8.92
2017-05-05T22:30:34.598Z,8.50
2017-05-05T22:33:02.880Z,8.06
2017-05-05T22:35:31.170Z,7.90
2017-05-05T22:37:59.839Z,9.72
2017-05-05T22:40:28.137Z,7.32
2017-05-05T22:42:57.164Z,8.76
2017-05-05T22:45:25.744Z,9.42
2017-05-05T22:47:54.031Z,9.04
2017-05-05T22:50:22.323Z,7.74
2017-05-05T22:52:50.913Z,8.78
2017-05-05T22:55:19.212Z,9.46
2017-05-05T22:57:47.532Z,8.68
2017-05-05T23:00:16.150Z,7.78
2017-05-05T23:02:44.451Z,11.64
2017-05-05T23:05:12.745Z,9.52
2017-05-05T23:07:41.409Z,8.08
2017-05-05T23:10:09.699Z,8.02
2017-05-05T23:12:37.988Z,9.76
2017-05-05T23:15:07.322Z,12.14
2017-05-05T23:17:35.629Z,9.72
2017-05-05T23:20:03.918Z,7.76
2017-05-05T23:25:06.087Z,12.42
2017-05-05T23:27:34.704Z,11.10
2017-05-05T23:30:03.004Z,8.16
2017-05-05T23:32:32.016Z,6.56
2017-05-05T23:35:00.652Z,6.98
2017-05-05T23:37:28.988Z,11.20
2017-05-05T23:39:57.279Z,8.56
2017-05-05T23:42:25.883Z,7.84
2017-05-05T23:44:54.186Z,7.70
2017-05-05T23:47:22.457Z,10.64
2017-05-05T23:49:51.037Z,7.44
2017-05-05T23:52:19.353Z,8.10
2017-05-05T23:54:47.687Z,8.16
2017-05-05T23:57:16.409Z,7.66
2017-05-05T23:59:45.489Z,7.24
